Yellow Mule RAWS (NWS)

Jump to table bottom
Date/Time Wind Direction Wind Speed knots Wind Gust knots RH % Accumulated Precip Inches Air Temp Fahrenheit
2022-09-29 09:04 SSE 10 17 74 12.9 44
2022-09-29 08:04 SSE 9 17 73 12.9 43
2022-09-29 07:04 ESE 7 21 71 12.9 45
2022-09-29 06:04 SSE 19 32 53 12.9 49
2022-09-29 05:04 S 19 31 60 12.9 49
2022-09-29 04:04 S 15 23 53 12.9 50
2022-09-29 03:04 SSE 10 14 48 12.9 49
2022-09-29 02:04 SSE 10 17 47 12.9 50
2022-09-29 01:04 SE 9 11 47 12.9 49
2022-09-29 00:04 SE 9 11 48 12.9 49
2022-09-28 23:04 SSE 8 13 43 12.9 50
2022-09-28 22:04 SSE 8 13 39 12.9 52
2022-09-28 21:04 SSE 9 12 33 12.9 54
2022-09-28 20:04 SSE 6 15 29 12.9 54
2022-09-28 19:04 S 10 16 26 12.9 56
2022-09-28 18:04 SSE 7 15 23 12.9 61
2022-09-28 17:04 SSE 10 19 22 12.9 62
2022-09-28 16:04 SSE 11 20 21 12.9 63
2022-09-28 15:04 SSW 10 18 24 12.9 59
2022-09-28 14:04 SSW 8 18 21 12.9 62
2022-09-28 13:04 S 8 15 20 12.9 64
2022-09-28 12:04 S 5 12 25 12.9 63
2022-09-28 11:04 S 7 12 27 12.9 61
2022-09-28 10:04 S 7 9 30 12.9 58
2022-09-28 09:04 S 5 10 30 12.9 55
2022-09-28 08:04 S 7 10 35 12.9 49
2022-09-28 07:04 SSW 9 10 32 12.9 51
2022-09-28 06:04 S 5 10 36 12.9 48
2022-09-28 05:04 SSW 7 10 36 12.9 49
2022-09-28 04:04 S 5 6 34 12.9 49
2022-09-28 03:04 S 4 10 35 12.9 48
2022-09-28 02:04 SSW 8 11 32 12.9 51
2022-09-28 01:04 SW 7 8 31 12.9 52
2022-09-28 00:04 S 5 5 36 12.9 48
2022-09-27 23:04 S 4 7 32 12.9 51
2022-09-27 22:04 S 4 8 34 12.9 50
2022-09-27 21:04 SSE 5 8 32 12.9 52
2022-09-27 20:04 SSW 6 10 30 12.9 53
2022-09-27 19:04 SW 8 12 27 12.9 55
2022-09-27 18:04 S 9 14 24 12.9 60
2022-09-27 17:04 SSE 9 19 21 12.9 63
2022-09-27 16:04 SSW 10 19 21 12.9 63
2022-09-27 15:04 S 7 17 22 12.9 63
2022-09-27 14:04 SSE 4 17 22 12.9 62
2022-09-27 13:04 S 6 14 24 12.9 61
2022-09-27 12:04 S 8 12 26 12.9 60
2022-09-27 11:04 SSW 6 12 25 12.9 60
2022-09-27 10:04 S 9 11 26 12.9 57
2022-09-27 09:04 S 4 6 28 12.9 55
2022-09-27 08:04 S 4 6 32 12.9 50